Time;durP1;ratioP1;P1;durP2;ratioP2;P2;SDS_P1;SDS_P2;PMS_P1;PMS_P2;Temp;Humidity;BMP_temperature;BMP_pressure;BME280_temperature;BME280_humidity;BME280_pressure;Samples;Min_cycle;Max_cycle;Signal;HPM_P1;HPM_P2
2023/03/12 00:00:11;;;;;;;6.63;3.55;;;;;;;1.35;100.00;92296.94;5069380;28;20106;-71
2023/03/12 00:02:39;;;;;;;6.90;4.05;;;;;;;1.47;100.00;92297.28;5069457;28;20052;-71
2023/03/12 00:05:07;;;;;;;7.05;4.22;;;;;;;1.58;100.00;92298.59;5069395;28;20102;-71
2023/03/12 00:07:35;;;;;;;5.40;3.88;;;;;;;1.73;100.00;92308.69;5068779;28;20048;-71
2023/03/12 00:10:02;;;;;;;7.57;4.45;;;;;;;1.79;100.00;92295.31;5069478;28;20044;-72
2023/03/12 00:12:28;;;;;;;7.57;4.38;;;;;;;1.79;100.00;92314.75;5068928;28;20547;-71
2023/03/12 00:14:55;;;;;;;7.90;3.97;;;;;;;1.30;100.00;92324.53;5069619;28;20052;-71
2023/03/12 00:17:22;;;;;;;10.48;4.57;;;;;;;1.42;100.00;92323.13;5069329;28;20112;-71
2023/03/12 00:19:53;;;;;;;6.90;4.82;;;;;;;1.23;100.00;92316.03;5069349;28;20048;-71
2023/03/12 00:22:21;;;;;;;7.70;5.05;;;;;;;1.12;100.00;92328.19;5068820;28;20393;-71
2023/03/12 00:24:50;;;;;;;6.03;4.53;;;;;;;0.96;100.00;92326.59;5069423;28;20049;-71
2023/03/12 00:27:17;;;;;;;7.32;4.75;;;;;;;0.93;100.00;92332.78;5069092;28;20049;-71
2023/03/12 00:29:44;;;;;;;6.03;4.40;;;;;;;0.62;100.00;92333.69;5069324;28;20528;-70
2023/03/12 00:32:11;;;;;;;10.68;7.25;;;;;;;0.66;100.00;92336.66;5068523;28;20169;-70
2023/03/12 00:34:37;;;;;;;11.85;7.65;;;;;;;0.57;100.00;92337.66;5069321;28;20048;-70
2023/03/12 00:37:06;;;;;;;9.00;6.50;;;;;;;0.46;100.00;92336.34;5068976;28;20040;-70
2023/03/12 00:39:34;;;;;;;6.75;5.60;;;;;;;0.48;100.00;92331.91;5068952;28;20052;-70
2023/03/12 00:42:01;;;;;;;7.25;5.13;;;;;;;0.44;100.00;92333.97;5068819;28;20086;-70
2023/03/12 00:44:27;;;;;;;7.38;5.80;;;;;;;0.44;100.00;92326.41;5068506;28;20053;-70
2023/03/12 00:46:55;;;;;;;10.60;6.68;;;;;;;0.41;100.00;92323.44;5055980;28;20605;-70
2023/03/12 00:49:22;;;;;;;7.05;5.32;;;;;;;0.32;100.00;92325.22;5068825;28;20094;-70
2023/03/12 00:51:49;;;;;;;8.30;6.25;;;;;;;0.29;100.00;92328.88;5068827;28;20465;-71
2023/03/12 00:54:17;;;;;;;7.38;6.05;;;;;;;0.21;100.00;92339.81;5068607;28;20056;-71
2023/03/12 00:56:45;;;;;;;9.10;6.35;;;;;;;0.15;100.00;92337.97;5042858;28;20048;-71
2023/03/12 00:59:12;;;;;;;9.45;6.30;;;;;;;0.10;100.00;92338.44;5068785;28;20055;-71
2023/03/12 01:01:39;;;;;;;7.78;5.10;;;;;;;0.01;100.00;92324.31;5068820;28;20138;-70
2023/03/12 01:04:05;;;;;;;12.30;5.63;;;;;;;0.18;100.00;92341.91;5068471;28;20052;-70
2023/03/12 01:06:32;;;;;;;7.03;5.25;;;;;;;0.03;100.00;92337.56;5069295;28;20052;-70
2023/03/12 01:08:59;;;;;;;8.18;5.35;;;;;;;0.08;100.00;92337.84;5069120;28;20086;-70
2023/03/12 01:11:27;;;;;;;7.85;5.65;;;;;;;0.13;100.00;92335.59;5068982;28;20052;-70
2023/03/12 01:13:54;;;;;;;7.30;5.30;;;;;;;0.22;100.00;92333.81;5070409;28;20049;-70
2023/03/12 01:16:21;;;;;;;8.75;5.35;;;;;;;0.23;100.00;92337.91;5073201;28;20059;-70
2023/03/12 01:18:47;;;;;;;5.88;5.20;;;;;;;0.33;100.00;92327.56;5072425;28;20075;-70
2023/03/12 01:21:14;;;;;;;8.25;6.63;;;;;;;0.56;100.00;92331.03;5073016;28;20102;-70
2023/03/12 01:23:41;;;;;;;6.85;5.22;;;;;;;0.44;100.00;92340.75;5071896;28;20505;-70
2023/03/12 01:26:07;;;;;;;8.73;5.88;;;;;;;0.63;100.00;92331.94;5072564;28;20041;-70
2023/03/12 01:28:35;;;;;;;8.07;5.85;;;;;;;0.45;100.00;92335.53;5072333;28;20052;-70
2023/03/12 01:31:07;;;;;;;6.65;5.90;;;;;;;0.29;100.00;92335.66;5072768;28;20044;-70
2023/03/12 01:33:33;;;;;;;8.60;5.38;;;;;;;0.15;100.00;92339.69;5072297;28;20471;-70
2023/03/12 01:36:00;;;;;;;8.20;5.45;;;;;;;0.21;100.00;92339.81;5072520;28;20044;-70
2023/03/12 01:38:27;;;;;;;9.23;6.63;;;;;;;0.23;100.00;92342.94;5072535;28;20424;-70
2023/03/12 01:40:53;;;;;;;14.32;8.55;;;;;;;0.22;100.00;92338.84;5072623;28;20052;-70
2023/03/12 01:43:27;;;;;;;12.90;7.47;;;;;;;0.34;100.00;92333.41;5072140;28;20122;-70
2023/03/12 01:46:23;;;;;;;7.47;5.80;;;;;;;0.48;100.00;92321.78;5072351;28;20053;-70
2023/03/12 01:48:56;;;;;;;7.90;5.95;;;;;;;0.35;100.00;92310.50;5072477;28;20048;-70
2023/03/12 01:51:27;;;;;;;13.35;6.55;;;;;;;0.27;100.00;92282.78;5072348;28;20049;-71
2023/03/12 01:53:57;;;;;;;8.23;6.43;;;;;;;0.41;100.00;92314.09;5072414;28;20049;-70
2023/03/12 01:56:27;;;;;;;14.30;9.18;;;;;;;0.41;100.00;92310.78;5071729;28;20053;-71
2023/03/12 01:58:58;;;;;;;9.18;6.90;;;;;;;0.38;100.00;92295.00;5072096;28;20102;-71
2023/03/12 02:01:27;;;;;;;7.57;6.18;;;;;;;0.48;100.00;92320.06;5071707;28;20053;-71
2023/03/12 02:03:55;;;;;;;9.10;7.10;;;;;;;0.33;100.00;92319.22;5071911;28;20044;-71
2023/03/12 02:06:29;;;;;;;8.70;6.45;;;;;;;0.24;100.00;92318.50;5071557;28;20518;-71
2023/03/12 02:08:58;;;;;;;8.80;7.78;;;;;;;0.35;100.00;92318.09;5071748;28;20049;-71
2023/03/12 02:11:25;;;;;;;9.10;6.38;;;;;;;0.13;100.00;92327.22;5071830;28;20122;-71
2023/03/12 02:13:52;;;;;;;9.98;7.38;;;;;;;0.23;100.00;92314.41;5071800;28;20048;-71
2023/03/12 02:16:19;;;;;;;8.90;6.65;;;;;;;0.18;100.00;92319.94;5071953;28;20040;-70
2023/03/12 02:18:51;;;;;;;6.72;5.45;;;;;;;0.15;100.00;92319.50;5071760;28;20048;-70
2023/03/12 02:21:22;;;;;;;7.32;5.43;;;;;;;0.16;100.00;92321.06;5071630;28;20094;-70
2023/03/12 02:23:56;;;;;;;9.18;6.47;;;;;;;0.15;100.00;92324.53;5057922;28;20048;-71
2023/03/12 02:26:24;;;;;;;8.85;6.75;;;;;;;0.08;100.00;92325.22;5070606;28;20419;-71
2023/03/12 02:28:53;;;;;;;13.88;10.35;;;;;;;0.02;100.00;92322.56;5071230;28;20044;-70
2023/03/12 02:31:23;;;;;;;10.30;7.07;;;;;;;-0.18;100.00;92338.91;5071753;28;20440;-71
2023/03/12 02:33:51;;;;;;;9.18;7.03;;;;;;;-0.23;100.00;92336.09;5071327;28;20551;-70
2023/03/12 02:36:18;;;;;;;9.60;6.65;;;;;;;-0.30;100.00;92336.00;5071185;28;20088;-70
2023/03/12 02:38:46;;;;;;;9.70;6.45;;;;;;;-0.59;100.00;92331.53;5070871;28;20355;-70
2023/03/12 02:41:17;;;;;;;7.47;5.90;;;;;;;-0.65;100.00;92339.75;5071562;28;20048;-71
2023/03/12 02:43:49;;;;;;;13.00;6.68;;;;;;;-0.66;100.00;92335.66;5045152;28;20122;-71
2023/03/12 02:46:16;;;;;;;8.07;6.20;;;;;;;-0.73;100.00;92341.38;5052947;28;20414;-71
2023/03/12 02:48:43;;;;;;;6.78;5.85;;;;;;;-0.61;100.00;92349.34;5063253;28;20049;-71
2023/03/12 02:51:10;;;;;;;7.80;6.00;;;;;;;-0.59;100.00;92349.19;5065578;28;20090;-71
2023/03/12 02:53:36;;;;;;;7.03;5.78;;;;;;;-0.59;100.00;92346.69;5071292;28;20455;-70
2023/03/12 02:56:04;;;;;;;8.95;7.15;;;;;;;-0.46;100.00;92361.28;5071019;28;20098;-71
2023/03/12 02:58:30;;;;;;;9.10;6.95;;;;;;;-0.36;100.00;92366.94;5070824;28;20045;-71
2023/03/12 03:00:59;;;;;;;7.45;6.25;;;;;;;-0.33;100.00;92361.56;5070999;28;20098;-71
2023/03/12 03:03:25;;;;;;;7.22;6.22;;;;;;;-0.22;100.00;92359.63;5070970;28;20052;-71
2023/03/12 03:05:52;;;;;;;7.40;6.25;;;;;;;-0.17;100.00;92365.75;5070335;28;20052;-71
2023/03/12 03:08:19;;;;;;;10.18;7.18;;;;;;;-0.21;100.00;92364.50;5070522;28;20493;-71
2023/03/12 03:10:46;;;;;;;7.38;6.07;;;;;;;-0.25;100.00;92375.06;5070744;28;20057;-71
2023/03/12 03:13:12;;;;;;;6.82;5.57;;;;;;;-0.34;100.00;92374.31;5070727;28;20049;-71
2023/03/12 03:15:39;;;;;;;6.18;4.95;;;;;;;-0.55;100.00;92383.25;5070496;28;20102;-71
2023/03/12 03:18:07;;;;;;;7.55;5.25;;;;;;;-0.60;100.00;92375.38;5070606;28;20052;-71
2023/03/12 03:20:34;;;;;;;6.75;5.32;;;;;;;-0.58;100.00;92378.50;5070040;28;20493;-70
2023/03/12 03:23:00;;;;;;;7.10;5.57;;;;;;;-0.77;100.00;92382.97;5070720;28;20094;-70
2023/03/12 03:25:27;;;;;;;6.90;5.70;;;;;;;-0.63;100.00;92385.78;5070106;28;20074;-70
2023/03/12 03:27:54;;;;;;;7.82;5.45;;;;;;;-0.81;100.00;92349.75;5070567;28;20040;-71
2023/03/12 03:30:21;;;;;;;9.07;5.72;;;;;;;-0.58;100.00;92396.16;5070238;28;20044;-71
2023/03/12 03:32:49;;;;;;;6.57;5.60;;;;;;;-0.62;100.00;92393.19;5070381;28;20105;-71
2023/03/12 03:35:17;;;;;;;6.00;4.60;;;;;;;-0.49;100.00;92397.72;5069798;28;20049;-70
2023/03/12 03:37:44;;;;;;;6.30;4.90;;;;;;;-0.60;100.00;92385.47;5070205;28;20447;-70
2023/03/12 03:40:12;;;;;;;7.97;5.40;;;;;;;-0.35;100.00;92400.50;5070157;28;20044;-71
2023/03/12 03:42:40;;;;;;;6.85;5.40;;;;;;;-0.42;100.00;92411.25;5070068;28;20102;-71
2023/03/12 03:45:09;;;;;;;8.48;5.68;;;;;;;-0.37;100.00;92412.53;5069568;28;20559;-71
2023/03/12 03:47:36;;;;;;;6.55;5.18;;;;;;;-0.39;100.00;92412.69;5070099;28;20044;-71
2023/03/12 03:50:04;;;;;;;6.57;5.38;;;;;;;-0.21;100.00;92406.63;5070107;28;20386;-71
2023/03/12 03:52:32;;;;;;;7.70;5.63;;;;;;;-0.09;100.00;92407.81;5070063;28;20049;-71
2023/03/12 03:54:59;;;;;;;9.45;4.90;;;;;;;0.03;100.00;92413.31;5069817;28;20044;-72
2023/03/12 03:57:26;;;;;;;5.57;4.30;;;;;;;-0.21;100.00;92420.03;5069559;28;20052;-71
2023/03/12 03:59:53;;;;;;;5.43;4.18;;;;;;;-0.33;100.00;92422.13;5069344;28;20094;-71
2023/03/12 04:02:20;;;;;;;7.15;5.00;;;;;;;-0.29;100.00;92432.66;5070023;28;20056;-71
2023/03/12 04:04:46;;;;;;;8.13;5.15;;;;;;;-0.27;100.00;92433.31;5069546;28;20562;-71
2023/03/12 04:07:13;;;;;;;6.63;5.10;;;;;;;-0.22;100.00;92428.56;5069919;28;20052;-71
2023/03/12 04:09:41;;;;;;;7.78;6.10;;;;;;;-0.24;100.00;92437.25;5069652;28;20492;-71
2023/03/12 04:12:08;;;;;;;8.27;6.07;;;;;;;-0.20;100.00;92436.75;5069797;28;20044;-71
2023/03/12 04:14:35;;;;;;;17.13;9.57;;;;;;;-0.34;100.00;92437.41;5043767;28;20185;-71
2023/03/12 04:17:01;;;;;;;10.98;8.23;;;;;;;-0.24;100.00;92434.72;5069608;28;20052;-71
2023/03/12 04:19:28;;;;;;;11.57;8.23;;;;;;;-0.32;100.00;92433.78;5069368;28;20048;-71
2023/03/12 04:21:55;;;;;;;11.82;8.55;;;;;;;-0.29;100.00;92436.00;5069524;28;20093;-71
2023/03/12 04:24:21;;;;;;;12.68;7.90;;;;;;;-0.35;100.00;92438.38;5069219;28;20496;-71
2023/03/12 04:26:50;;;;;;;9.48;6.60;;;;;;;-0.47;100.00;92438.72;5069036;28;20048;-71
2023/03/12 04:29:17;;;;;;;6.78;5.30;;;;;;;-0.76;100.00;92446.78;5069318;28;20048;-71
2023/03/12 04:31:44;;;;;;;9.57;6.75;;;;;;;-0.69;100.00;92451.03;5069081;28;20044;-71
2023/03/12 04:34:11;;;;;;;10.02;6.00;;;;;;;-0.83;100.00;92444.91;5069082;28;20098;-71
2023/03/12 04:36:37;;;;;;;8.27;5.22;;;;;;;-0.80;100.00;92456.41;5068879;28;20102;-71
2023/03/12 04:39:06;;;;;;;13.18;5.82;;;;;;;-0.80;100.00;92461.47;5069183;28;20044;-71
2023/03/12 04:41:33;;;;;;;11.55;7.75;;;;;;;-0.82;100.00;92461.63;5068671;28;20451;-71
2023/03/12 04:44:01;;;;;;;8.60;5.63;;;;;;;-0.83;100.00;92464.31;5069191;28;20052;-71
2023/03/12 04:46:28;;;;;;;7.40;5.85;;;;;;;-0.76;100.00;92466.97;5062677;28;20098;-71
2023/03/12 04:48:56;;;;;;;6.43;4.97;;;;;;;-0.86;100.00;92483.06;5067764;28;20078;-71
2023/03/12 04:51:23;;;;;;;6.85;5.10;;;;;;;-1.15;100.00;92469.16;5069120;28;20159;-71
2023/03/12 04:53:50;;;;;;;7.97;7.18;;;;;;;-1.14;100.00;92488.41;5068955;28;20094;-71
2023/03/12 04:56:17;;;;;;;9.35;6.70;;;;;;;-1.29;100.00;92497.53;5068730;28;20090;-71
2023/03/12 04:58:44;;;;;;;8.60;6.35;;;;;;;-1.16;100.00;92512.97;5068961;28;20041;-71
2023/03/12 05:01:22;;;;;;;8.27;5.30;;;;;;;-1.13;100.00;92499.28;5068504;28;20459;-71
2023/03/12 05:03:49;;;;;;;7.75;5.10;;;;;;;-0.91;100.00;92502.91;5068784;28;20416;-71
2023/03/12 05:06:15;;;;;;;7.13;4.80;;;;;;;-0.92;100.00;92511.44;5068375;28;20044;-71
2023/03/12 05:08:43;;;;;;;7.45;4.75;;;;;;;-0.75;100.00;92511.44;5068928;28;20040;-72
2023/03/12 05:11:09;;;;;;;13.20;7.13;;;;;;;-0.62;100.00;92519.31;5068264;28;20051;-72
2023/03/12 05:13:36;;;;;;;20.45;8.57;;;;;;;-0.58;100.00;92509.69;5068367;28;20052;-72
2023/03/12 05:16:03;;;;;;;15.35;7.80;;;;;;;-0.44;100.00;92514.09;5068528;28;20053;-71
2023/03/12 05:18:31;;;;;;;13.35;7.45;;;;;;;-0.53;100.00;92494.88;5068926;28;20462;-71
2023/03/12 05:21:00;;;;;;;14.05;7.60;;;;;;;-0.32;100.00;92509.50;5067677;28;20045;-71
2023/03/12 05:23:27;;;;;;;11.90;6.65;;;;;;;-0.23;100.00;92517.81;5051023;28;20057;-71
2023/03/12 05:25:53;;;;;;;10.95;7.10;;;;;;;-0.17;100.00;92524.78;5064512;28;20114;-71
2023/03/12 05:28:21;;;;;;;13.07;7.57;;;;;;;-0.18;100.00;92523.19;5049167;28;21209;-71
2023/03/12 05:30:48;;;;;;;10.63;7.07;;;;;;;-0.15;100.00;92520.34;5065953;28;20409;-71
2023/03/12 05:33:15;;;;;;;11.40;6.55;;;;;;;-0.11;100.00;92533.44;5068352;28;20041;-71
2023/03/12 05:35:43;;;;;;;9.85;6.45;;;;;;;0.03;100.00;92541.28;5068998;28;20045;-71
2023/03/12 05:38:09;;;;;;;19.00;12.73;;;;;;;0.07;100.00;92540.03;5068206;28;20036;-71
2023/03/12 05:40:36;;;;;;;35.65;18.73;;;;;;;-0.02;100.00;92529.16;5066905;28;20095;-72
2023/03/12 05:43:03;;;;;;;25.88;16.20;;;;;;;0.08;100.00;92539.88;5068360;28;20455;-72
2023/03/12 05:45:32;;;;;;;23.95;14.85;;;;;;;0.15;100.00;92542.53;5068844;28;20114;-72
2023/03/12 05:48:01;;;;;;;33.38;20.40;;;;;;;0.24;100.00;92550.88;5067655;28;20052;-72
2023/03/12 05:50:28;;;;;;;22.15;14.52;;;;;;;0.39;100.00;92550.97;5068111;28;20080;-72
2023/03/12 05:52:56;;;;;;;22.63;13.93;;;;;;;0.46;100.00;92548.59;5068451;28;20048;-72
2023/03/12 05:55:23;;;;;;;23.45;13.63;;;;;;;0.60;100.00;92560.50;5067252;28;20558;-72
2023/03/12 05:57:51;;;;;;;17.35;11.13;;;;;;;0.70;100.00;92564.59;5052085;28;20184;-72
2023/03/12 06:00:18;;;;;;;18.20;11.48;;;;;;;0.83;100.00;92556.47;5070357;28;20404;-72
2023/03/12 06:02:47;;;;;;;16.25;11.00;;;;;;;0.96;100.00;92558.47;5071966;28;20048;-72
2023/03/12 06:05:13;;;;;;;18.02;12.25;;;;;;;1.11;100.00;92561.84;5072413;28;20086;-72
2023/03/12 06:07:40;;;;;;;19.65;10.82;;;;;;;1.26;100.00;92574.56;5071984;28;20091;-72
2023/03/12 06:10:10;;;;;;;16.02;7.70;;;;;;;1.31;100.00;92579.13;5071692;28;20048;-72
2023/03/12 06:12:37;;;;;;;12.77;8.65;;;;;;;1.33;100.00;92574.66;5071328;28;20501;-72
2023/03/12 06:15:04;;;;;;;11.45;5.93;;;;;;;1.35;100.00;92582.09;5072114;28;20094;-72
2023/03/12 06:17:31;;;;;;;8.75;6.10;;;;;;;1.44;100.00;92591.97;5071372;28;20117;-72
2023/03/12 06:19:58;;;;;;;9.18;5.80;;;;;;;1.52;100.00;92586.06;5071659;28;20048;-72
2023/03/12 06:22:25;;;;;;;9.85;5.90;;;;;;;1.63;100.00;92587.44;5071649;28;20114;-72
2023/03/12 06:24:52;;;;;;;10.75;5.82;;;;;;;1.78;100.00;92594.25;5071194;28;20447;-72
2023/03/12 06:27:20;;;;;;;5.65;3.67;;;;;;;1.89;100.00;92605.75;5071687;28;20136;-72
2023/03/12 06:29:47;;;;;;;7.30;3.22;;;;;;;2.00;100.00;92605.34;5068196;28;20427;-72
2023/03/12 06:32:14;;;;;;;4.53;3.35;;;;;;;2.13;98.73;92618.19;5056886;28;20045;-71
2023/03/12 06:34:41;;;;;;;5.30;3.40;;;;;;;2.32;99.86;92616.09;5071996;28;20149;-71
2023/03/12 06:37:07;;;;;;;7.25;3.45;;;;;;;2.38;99.24;92607.81;5065725;28;20101;-71
2023/03/12 06:39:34;;;;;;;7.75;3.67;;;;;;;2.54;96.73;92628.88;5059028;28;20398;-71
2023/03/12 06:42:01;;;;;;;5.45;2.97;;;;;;;2.30;87.66;92618.03;5071013;28;20122;-71
2023/03/12 06:44:29;;;;;;;5.20;3.15;;;;;;;2.26;89.12;92611.72;5070848;28;20509;-71
2023/03/12 06:46:55;;;;;;;4.68;3.20;;;;;;;2.42;93.14;92605.72;5070786;28;20486;-71
2023/03/12 06:49:23;;;;;;;11.45;6.15;;;;;;;2.64;97.06;92611.66;5070236;28;20048;-71
2023/03/12 06:51:50;;;;;;;12.90;6.03;;;;;;;2.72;96.84;92608.25;5069989;28;20072;-71
2023/03/12 06:54:16;;;;;;;10.35;5.43;;;;;;;3.00;99.19;92611.91;5070535;28;20569;-71
2023/03/12 06:56:43;;;;;;;8.05;4.47;;;;;;;2.89;87.92;92608.06;5071269;28;20040;-71
2023/03/12 06:59:10;;;;;;;7.40;4.15;;;;;;;2.69;85.66;92625.56;5070595;28;20094;-71
2023/03/12 07:01:38;;;;;;;6.30;3.50;;;;;;;2.18;88.09;92634.63;5071060;28;20110;-70
2023/03/12 07:04:04;;;;;;;9.60;4.07;;;;;;;1.86;86.52;92637.25;5070534;28;20483;-70
2023/03/12 07:06:31;;;;;;;7.78;3.45;;;;;;;1.59;83.29;92644.41;5070584;28;20394;-70
2023/03/12 07:08:58;;;;;;;5.63;2.92;;;;;;;1.25;84.48;92645.56;5070598;28;20105;-70
2023/03/12 07:11:25;;;;;;;7.97;4.03;;;;;;;1.36;83.49;92654.50;5069759;28;20048;-70
2023/03/12 07:13:51;;;;;;;11.50;5.85;;;;;;;1.58;84.33;92656.28;5070139;28;20475;-70
2023/03/12 07:16:18;;;;;;;7.25;3.20;;;;;;;1.74;93.10;92649.53;5070902;28;20090;-70
2023/03/12 07:18:46;;;;;;;3.28;2.08;;;;;;;1.42;84.69;92653.84;5070245;28;20068;-71
2023/03/12 07:21:15;;;;;;;4.53;2.15;;;;;;;1.61;89.43;92660.22;5070786;28;20049;-70
2023/03/12 07:23:42;;;;;;;4.32;2.95;;;;;;;1.65;87.58;92664.00;5070009;28;20055;-70
2023/03/12 07:26:08;;;;;;;16.23;8.77;;;;;;;1.32;87.45;92680.16;5070263;28;20562;-70
2023/03/12 07:28:35;;;;;;;4.05;2.20;;;;;;;0.86;85.61;92683.34;5070258;28;20090;-70
2023/03/12 07:31:03;;;;;;;5.90;3.05;;;;;;;0.57;81.12;92684.69;5065252;28;20053;-70
2023/03/12 07:33:29;;;;;;;9.77;4.50;;;;;;;0.45;83.29;92666.56;5069785;28;20106;-70
2023/03/12 07:35:58;;;;;;;10.82;5.75;;;;;;;0.47;85.62;92667.16;5070271;28;20045;-70
2023/03/12 07:38:25;;;;;;;4.50;3.03;;;;;;;0.86;93.42;92668.19;5066811;28;20090;-70
2023/03/12 07:40:53;;;;;;;4.95;2.50;;;;;;;1.05;87.38;92674.59;5069695;28;20060;-70
2023/03/12 07:43:20;;;;;;;3.60;1.98;;;;;;;1.15;87.22;92674.38;5069697;28;20501;-70
2023/03/12 07:45:47;;;;;;;6.53;2.45;;;;;;;1.17;86.44;92674.22;5070048;28;20138;-71
2023/03/12 07:48:14;;;;;;;3.92;2.30;;;;;;;1.09;85.29;92679.31;5070099;28;20044;-71
2023/03/12 07:50:41;;;;;;;4.38;2.80;;;;;;;0.88;84.63;92668.78;5069937;28;20049;-70
2023/03/12 07:53:10;;;;;;;3.85;2.47;;;;;;;1.07;87.31;92674.44;5069575;28;20551;-71
2023/03/12 07:55:36;;;;;;;5.60;2.80;;;;;;;1.14;88.39;92651.78;5065396;28;20389;-71
2023/03/12 07:58:04;;;;;;;6.05;4.13;;;;;;;1.28;87.92;92685.72;5067239;28;20542;-71
2023/03/12 08:00:31;;;;;;;3.92;2.67;;;;;;;1.18;85.20;92684.19;5069576;28;21071;-71
2023/03/12 08:02:58;;;;;;;4.53;2.50;;;;;;;1.06;88.62;92688.00;5043300;28;20505;-71
2023/03/12 08:05:25;;;;;;;4.88;2.53;;;;;;;1.12;89.65;92681.53;5069978;28;20053;-71
2023/03/12 08:07:52;;;;;;;6.28;3.65;;;;;;;1.13;87.28;92695.75;5062577;28;20053;-70
2023/03/12 08:10:21;;;;;;;19.20;6.88;;;;;;;1.18;85.52;92679.13;5063061;28;20098;-70
2023/03/12 08:12:48;;;;;;;6.53;2.67;;;;;;;1.19;86.13;92678.16;5069108;28;20052;-70
2023/03/12 08:15:15;;;;;;;4.80;2.55;;;;;;;1.39;87.92;92682.81;5065786;28;20045;-70
2023/03/12 08:17:42;;;;;;;3.17;2.05;;;;;;;1.35;83.05;92681.56;5069507;28;20056;-70
2023/03/12 08:20:10;;;;;;;3.80;2.13;;;;;;;1.12;83.74;92699.22;5064875;28;20097;-70
2023/03/12 08:22:38;;;;;;;3.38;2.20;;;;;;;1.19;86.41;92705.19;5068773;28;20383;-70
2023/03/12 08:25:06;;;;;;;2.90;1.85;;;;;;;1.10;83.74;92660.66;5068711;28;20048;-71
2023/03/12 08:27:36;;;;;;;11.50;4.63;;;;;;;1.33;83.85;92680.94;5068158;28;20102;-70
2023/03/12 08:30:03;;;;;;;4.53;2.17;;;;;;;1.53;85.13;92688.91;5062497;28;20040;-71
2023/03/12 08:32:31;;;;;;;4.30;2.15;;;;;;;1.70;89.09;92663.47;5069647;28;20052;-71
2023/03/12 08:34:58;;;;;;;5.10;2.65;;;;;;;2.25;85.50;92696.31;5070139;28;20772;-70
2023/03/12 08:37:25;;;;;;;6.55;2.47;;;;;;;2.29;88.26;92687.44;5070282;28;20049;-71
2023/03/12 08:39:52;;;;;;;5.18;2.42;;;;;;;2.38;81.80;92701.63;5068623;28;20546;-70
2023/03/12 08:42:18;;;;;;;14.85;5.55;;;;;;;2.23;79.47;92704.09;5070013;28;20056;-72
2023/03/12 08:44:46;;;;;;;6.45;2.70;;;;;;;2.25;81.55;92707.25;5068966;28;20458;-71
2023/03/12 08:47:13;;;;;;;3.42;2.17;;;;;;;1.80;78.61;92718.97;5069112;28;20044;-71
2023/03/12 08:49:40;;;;;;;3.33;2.15;;;;;;;2.08;82.15;92693.91;5068914;28;20045;-71
2023/03/12 08:52:07;;;;;;;4.78;2.70;;;;;;;2.63;85.73;92715.78;5069430;28;20098;-71
2023/03/12 08:54:33;;;;;;;24.40;8.35;;;;;;;2.59;78.90;92729.78;5068862;28;20041;-71
2023/03/12 08:57:00;;;;;;;8.70;3.42;;;;;;;2.61;81.13;92708.38;5069055;28;20438;-71
2023/03/12 08:59:27;;;;;;;14.23;7.07;;;;;;;2.04;72.46;92725.59;5069045;28;20060;-71
2023/03/12 09:01:56;;;;;;;3.80;2.22;;;;;;;2.00;75.28;92742.13;5068445;28;20049;-71
2023/03/12 09:04:22;;;;;;;4.00;2.33;;;;;;;1.38;73.31;92736.13;5068690;28;20189;-71
2023/03/12 09:06:49;;;;;;;7.80;3.53;;;;;;;1.56;76.24;92724.00;5068833;28;20094;-70
2023/03/12 09:09:16;;;;;;;10.32;4.43;;;;;;;1.98;76.98;92723.75;5068571;28;20427;-70
2023/03/12 09:11:42;;;;;;;3.28;2.00;;;;;;;2.40;82.66;92719.16;5068796;28;20053;-70
2023/03/12 09:14:09;;;;;;;5.45;2.78;;;;;;;2.30;80.26;92727.00;5068254;28;20110;-70
2023/03/12 09:16:36;;;;;;;5.32;2.95;;;;;;;2.53;82.10;92729.53;5069104;28;20049;-71
2023/03/12 09:19:04;;;;;;;3.55;2.10;;;;;;;2.73;75.54;92730.78;5068606;28;20090;-70
2023/03/12 09:21:31;;;;;;;2.67;1.90;;;;;;;2.60;77.52;92726.28;5068906;28;20041;-71
2023/03/12 09:23:58;;;;;;;4.53;2.33;;;;;;;2.75;76.67;92728.84;5056850;28;20559;-71
2023/03/12 09:26:25;;;;;;;2.70;1.90;;;;;;;2.77;74.96;92726.91;5057754;28;20044;-71
2023/03/12 09:28:51;;;;;;;3.15;2.35;;;;;;;3.25;75.72;92731.66;5068605;28;20049;-71
2023/03/12 09:31:18;;;;;;;4.50;2.15;;;;;;;3.47;72.01;92732.50;5063596;28;20867;-71
2023/03/12 09:33:45;;;;;;;2.45;1.60;;;;;;;3.21;71.61;92682.97;5068435;28;20041;-71
2023/03/12 09:36:13;;;;;;;3.15;2.15;;;;;;;3.64;75.23;92719.59;5071964;28;20110;-71
2023/03/12 09:38:40;;;;;;;4.25;1.55;;;;;;;3.47;71.98;92719.81;5069155;28;20045;-71
2023/03/12 09:41:17;;;;;;;3.60;2.20;;;;;;;3.64;73.77;92722.13;5072431;28;20057;-71
2023/03/12 09:43:49;;;;;;;8.18;2.78;;;;;;;4.12;76.34;92724.16;5046106;28;20090;-71
2023/03/12 09:46:26;;;;;;;4.65;2.63;;;;;;;3.76;72.41;92721.66;5072086;28;20053;-71
2023/03/12 09:48:57;;;;;;;4.32;2.40;;;;;;;3.39;72.75;92684.38;5072884;28;20074;-71
2023/03/12 09:51:31;;;;;;;4.82;1.98;;;;;;;3.72;71.55;92714.41;5071965;28;20044;-71
2023/03/12 09:54:01;;;;;;;3.20;1.80;;;;;;;3.43;70.38;92718.56;5071993;28;20551;-71
2023/03/12 09:56:28;;;;;;;2.28;1.55;;;;;;;3.38;72.05;92722.63;5071906;28;20052;-71
2023/03/12 09:58:55;;;;;;;4.35;1.55;;;;;;;3.25;70.93;92718.19;5071731;28;20045;-71
2023/03/12 10:01:35;;;;;;;6.78;3.35;;;;;;;2.98;70.24;92723.72;5071919;28;20041;-71
2023/03/12 10:04:21;;;;;;;5.85;2.83;;;;;;;3.02;67.69;92674.16;5071750;28;20052;-71
2023/03/12 10:06:56;;;;;;;4.72;2.00;;;;;;;3.37;67.94;92718.53;5071763;28;20048;-71
2023/03/12 10:09:44;;;;;;;4.10;2.45;;;;;;;3.46;68.22;92719.97;5072178;28;21065;-71
2023/03/12 10:12:24;;;;;;;2.85;1.75;;;;;;;3.25;64.88;92729.13;5071909;28;20053;-71
2023/03/12 10:15:03;;;;;;;3.70;2.20;;;;;;;2.91;68.26;92707.59;5071615;28;20044;-71
2023/03/12 10:17:49;;;;;;;7.35;4.00;;;;;;;2.61;67.33;92690.63;5071440;28;20048;-71
2023/03/12 10:20:53;;;;;;;3.92;2.20;;;;;;;3.01;74.20;92713.19;5071160;28;20053;-71
2023/03/12 10:23:30;;;;;;;6.93;2.10;;;;;;;3.43;80.70;92710.97;5071949;28;20049;-71
2023/03/12 10:26:03;;;;;;;6.45;4.60;;;;;;;4.10;80.62;92697.34;5067897;28;20121;-71
2023/03/12 10:28:35;;;;;;;4.38;2.20;;;;;;;4.16;71.51;92698.41;5069078;28;20048;-71
2023/03/12 10:31:07;;;;;;;2.95;1.80;;;;;;;4.14;74.27;92681.56;5066173;28;20048;-71
2023/03/12 10:33:42;;;;;;;6.95;2.30;;;;;;;4.49;75.74;92708.81;5071542;28;20102;-71
2023/03/12 10:36:18;;;;;;;3.90;1.58;;;;;;;4.72;67.68;92719.75;5071417;28;21117;-71
2023/03/12 10:38:48;;;;;;;4.47;1.80;;;;;;;5.08;69.74;92694.13;5067918;28;20044;-71
2023/03/12 10:41:18;;;;;;;3.30;1.60;;;;;;;5.35;68.76;92713.81;5072027;28;20048;-71
2023/03/12 10:43:44;;;;;;;3.83;2.05;;;;;;;5.98;72.87;92697.53;5065011;28;20048;-71
2023/03/12 10:46:35;;;;;;;3.53;1.55;;;;;;;5.16;60.59;92711.00;5062983;28;20041;-71
2023/03/12 10:49:33;;;;;;;2.65;1.40;;;;;;;4.90;62.26;92709.06;5051317;28;20452;-71
2023/03/12 10:52:02;;;;;;;3.17;1.55;;;;;;;4.52;60.04;92717.84;5009158;28;20041;-71
2023/03/12 10:54:35;;;;;;;2.47;1.42;;;;;;;4.39;61.33;92718.50;5057767;28;20070;-71
2023/03/12 10:57:02;;;;;;;2.78;1.52;;;;;;;4.13;61.33;92709.72;5071112;28;20496;-71
2023/03/12 10:59:32;;;;;;;2.85;1.85;;;;;;;4.75;69.97;92686.28;5070613;28;20045;-71
2023/03/12 11:02:00;;;;;;;4.60;2.05;;;;;;;5.24;71.67;92687.16;5051820;28;20041;-71
2023/03/12 11:04:28;;;;;;;2.95;1.63;;;;;;;5.73;66.69;92695.53;5068339;28;20052;-71
2023/03/12 11:07:18;;;;;;;2.25;1.50;;;;;;;5.69;62.55;92678.28;5069689;28;20048;-71
2023/03/12 11:10:12;;;;;;;2.83;1.88;;;;;;;5.80;63.97;92684.56;5071050;28;20053;-71
2023/03/12 11:12:39;;;;;;;4.78;2.50;;;;;;;5.58;62.00;92677.06;5070667;28;20124;-71
2023/03/12 11:15:19;;;;;;;2.78;1.40;;;;;;;5.50;59.96;92677.25;5070589;28;20094;-71
2023/03/12 11:17:46;;;;;;;2.05;1.38;;;;;;;5.60;61.31;92680.22;5070901;28;20052;-71
2023/03/12 11:20:28;;;;;;;3.33;1.70;;;;;;;4.89;59.88;92662.50;5070079;28;20051;-71
2023/03/12 11:22:55;;;;;;;2.30;1.30;;;;;;;5.01;59.60;92667.84;5070342;28;20588;-71
2023/03/12 11:25:25;;;;;;;3.75;1.75;;;;;;;5.34;69.40;92649.34;5064750;28;20049;-71
2023/03/12 11:27:54;;;;;;;4.15;1.55;;;;;;;5.79;62.59;92671.03;5063008;28;20097;-72
2023/03/12 11:30:24;;;;;;;2.65;1.58;;;;;;;5.64;60.41;92681.38;5059229;28;20052;-71
2023/03/12 11:32:51;;;;;;;3.28;1.92;;;;;;;5.46;62.54;92676.84;5059642;28;20497;-71
2023/03/12 11:35:27;;;;;;;3.70;2.35;;;;;;;4.93;64.85;92657.81;5070136;28;20040;-71
2023/03/12 11:38:02;;;;;;;2.55;1.70;;;;;;;4.62;65.05;92672.50;5068670;28;20052;-71